Flight Number: EUR2093 Duration: 4:00
Departure: Munich Int'l (EDDM) at 07:30 Distance: 1764 Nm
Arrival: Tenerife Norte (GCXO) at 11:30 Equipment: MD-81

Weather Information
Munchen, Germany (EDDM) 48-21N 011-47E Oct 19, 2018 - 01:50 PM EDT / 2018.10.19 1750 UTC
Wind: from the N (360 degrees) at 2 MPH (2 KT):0
Visibility: 5 mile(s):0 Temperature: 48 F (9 C) Dew Point: 46 F (8 C) Relative Humidity: 93% Pressure (altimeter): 30.21 in. Hg (1023 hPa)
ob: EDDM 191750Z 36002KT 9000 NSC 09/08 Q1023 NOSIG cycle: 18
Sunrise: 05:42 Sunset: 16:12 (UTC)

Tenerife / Los Rodeos, Spain (GCXO) 28-28N 016-19W 617M Oct 19, 2018 - 02:00 PM EDT / 2018.10.19 1800 UTC
Wind: from the WNW (300 degrees) at 13 MPH (11 KT):0
Visibility: greater than 7 mile(s):0
Sky conditions: mostly cloudy Temperature: 60 F (16 C) Dew Point: 59 F (15 C) Relative Humidity: 93% Pressure (altimeter): 30.00 in. Hg (1016 hPa)
ob: GCXO 191800Z 30011KT 9999 FEW002 SCT007 BKN025 16/15 Q1016 NOSIG cycle: 18
Sunrise: 07:11 Sunset: 18:28 (UTC)

TAF:2018/10/19 17:07 TAF AMD GCXO 191701Z 1917/2015 31015KT 9999 FEW005 BKN020 TX19/2014Z TN14/2005Z TEMPO 1917/2001 4000 RA BKN010 PROB40 TEMPO 1917/2008 3000 DZ BCFG BKN005 BECMG 2000/2002 31005KT

Previous Pireps for this route
Date Aircraft Flight time Fuel used Landing rate On time
2012-10-26MD-8104.3632042-460Yes
2013-01-27B7474.101126660Charter
2013-02-21A32105.3225444-244No
2013-08-19B73704.4120438-223Charter
2015-03-28A34003.5984884-463Charter
2016-04-06MD-8104.2527058-407Yes
2016-06-14MD-8104.4027892-139Yes
2016-11-16MD-8104.2027104-221No
(pireps marked green are flown by you)

Route map